createdAt,value
2022-09-28T00:01:44.658Z,15.40
2022-09-28T00:04:12.135Z,14.95
2022-09-28T00:06:39.472Z,14.13
2022-09-28T00:09:06.567Z,15.38
2022-09-28T00:11:33.262Z,14.00
2022-09-28T00:14:03.480Z,13.57
2022-09-28T00:16:33.247Z,14.63
2022-09-28T00:19:00.805Z,14.35
2022-09-28T00:21:30.101Z,15.63
2022-09-28T00:24:18.891Z,17.13
2022-09-28T00:26:51.164Z,16.13
2022-09-28T00:29:26.527Z,13.82
2022-09-28T00:31:59.769Z,13.13
2022-09-28T00:34:27.356Z,13.02
2022-09-28T00:36:53.909Z,16.52
2022-09-28T00:39:21.431Z,12.80
2022-09-28T00:41:49.453Z,12.32
2022-09-28T00:44:31.922Z,11.88
2022-09-28T00:47:05.832Z,14.95
2022-09-28T00:49:38.603Z,18.92
2022-09-28T00:52:08.223Z,27.75
2022-09-28T00:57:03.418Z,15.57
2022-09-28T00:59:32.432Z,13.60
2022-09-28T01:01:59.219Z,12.90
2022-09-28T01:04:29.753Z,12.43
2022-09-28T01:06:59.027Z,13.05
2022-09-28T01:09:27.598Z,10.10
2022-09-28T01:11:55.171Z,11.32
2022-09-28T01:14:25.594Z,10.68
2022-09-28T01:16:55.140Z,11.13
2022-09-28T01:19:45.739Z,10.25
2022-09-28T01:22:34.485Z,9.40
2022-09-28T01:25:16.617Z,9.20
2022-09-28T01:27:52.086Z,10.82
2022-09-28T01:30:21.186Z,9.85
2022-09-28T01:32:57.590Z,9.48
2022-09-28T01:35:27.212Z,11.68
2022-09-28T01:40:30.306Z,13.90
2022-09-28T01:45:38.424Z,20.15
2022-09-28T01:48:07.767Z,26.15
2022-09-28T01:50:39.686Z,33.63
2022-09-28T01:53:15.788Z,47.10
2022-09-28T01:55:50.858Z,93.28
2022-09-28T01:58:26.978Z,119.50
2022-09-28T02:01:00.410Z,114.32
2022-09-28T02:03:40.726Z,107.80
2022-09-28T02:06:38.828Z,101.47
2022-09-28T02:09:12.558Z,109.00
2022-09-28T02:11:48.844Z,76.25
2022-09-28T02:14:18.100Z,66.28
2022-09-28T02:16:54.268Z,54.35
2022-09-28T02:19:28.449Z,55.28
2022-09-28T02:21:59.040Z,47.85
2022-09-28T02:24:37.571Z,50.38
2022-09-28T02:27:14.826Z,51.53
2022-09-28T02:29:41.770Z,49.28
2022-09-28T02:32:08.420Z,48.95
2022-09-28T02:34:35.551Z,52.45
2022-09-28T02:37:02.853Z,51.83
2022-09-28T02:39:29.512Z,52.30
2022-09-28T02:42:25.661Z,49.42
2022-09-28T02:45:14.271Z,41.03
2022-09-28T02:48:27.173Z,31.20
2022-09-28T02:51:10.228Z,24.05
2022-09-28T02:53:39.834Z,23.45
2022-09-28T02:56:25.172Z,18.13
2022-09-28T02:59:23.828Z,15.00
2022-09-28T03:02:20.190Z,14.30
2022-09-28T03:05:11.953Z,13.77
2022-09-28T03:08:01.009Z,16.17
2022-09-28T03:10:49.486Z,15.10
2022-09-28T03:13:17.758Z,13.45
2022-09-28T03:15:48.534Z,15.55
2022-09-28T03:18:17.547Z,18.58
2022-09-28T03:20:44.856Z,16.42
2022-09-28T03:23:26.877Z,18.13
2022-09-28T03:25:53.768Z,21.40
2022-09-28T03:28:21.446Z,24.08
2022-09-28T03:30:49.131Z,24.90
2022-09-28T03:33:16.028Z,24.05
2022-09-28T03:35:46.812Z,26.20
2022-09-28T03:38:13.757Z,24.33
2022-09-28T03:40:42.791Z,26.30
2022-09-28T03:43:09.580Z,27.83
2022-09-28T03:45:36.439Z,26.30
2022-09-28T03:48:03.062Z,26.23
2022-09-28T03:50:29.912Z,26.75
2022-09-28T03:53:02.229Z,26.90
2022-09-28T03:55:28.801Z,28.05
2022-09-28T03:57:58.220Z,27.35
2022-09-28T04:00:24.790Z,27.88
2022-09-28T04:02:51.412Z,27.10
2022-09-28T04:05:18.173Z,27.55
2022-09-28T04:07:44.762Z,30.23
2022-09-28T04:10:11.540Z,35.75
2022-09-28T04:12:39.161Z,32.30
2022-09-28T04:15:06.725Z,34.65
2022-09-28T04:17:39.220Z,36.30
2022-09-28T04:20:09.579Z,29.63
2022-09-28T04:22:55.228Z,32.45
2022-09-28T04:25:21.874Z,33.88
2022-09-28T04:28:07.749Z,34.40
2022-09-28T04:30:36.223Z,30.27
2022-09-28T04:33:03.241Z,36.28
2022-09-28T04:35:30.512Z,34.05
2022-09-28T04:37:57.112Z,30.83
2022-09-28T04:40:24.014Z,30.58
2022-09-28T04:42:56.069Z,32.22
2022-09-28T04:45:26.099Z,32.45
2022-09-28T04:47:54.796Z,35.28
2022-09-28T04:50:41.394Z,32.35
2022-09-28T04:53:20.261Z,33.20
2022-09-28T04:55:58.140Z,30.65
2022-09-28T04:58:25.383Z,35.97
2022-09-28T05:00:54.314Z,36.80
2022-09-28T05:03:42.021Z,32.05
2022-09-28T05:06:22.709Z,30.00
2022-09-28T05:08:57.304Z,30.00
2022-09-28T05:11:24.094Z,31.88
2022-09-28T05:13:50.840Z,30.42
2022-09-28T05:16:20.430Z,30.45
2022-09-28T05:19:07.024Z,35.47
2022-09-28T05:21:33.980Z,33.65
2022-09-28T05:24:00.839Z,32.35
2022-09-28T05:26:27.481Z,37.25
2022-09-28T05:28:54.101Z,30.92
2022-09-28T05:31:39.476Z,36.30
2022-09-28T05:34:21.224Z,33.13
2022-09-28T05:36:48.263Z,34.80
2022-09-28T05:39:14.843Z,33.70
2022-09-28T05:41:41.434Z,32.33
2022-09-28T05:44:08.301Z,32.38
2022-09-28T05:46:35.945Z,32.42
2022-09-28T05:49:02.745Z,34.78
2022-09-28T05:51:29.455Z,32.75
2022-09-28T05:54:04.609Z,36.33
2022-09-28T05:56:33.000Z,33.85
2022-09-28T05:59:01.688Z,34.17
2022-09-28T06:01:29.324Z,33.42
2022-09-28T06:03:58.005Z,31.57
2022-09-28T06:06:25.242Z,32.33
2022-09-28T06:08:52.125Z,36.53
2022-09-28T06:11:27.797Z,33.35
2022-09-28T06:13:56.909Z,33.47
2022-09-28T06:18:53.387Z,35.88
2022-09-28T06:21:38.479Z,38.53
2022-09-28T06:24:06.634Z,37.63
2022-09-28T06:26:33.376Z,35.70
2022-09-28T06:29:00.597Z,35.25
2022-09-28T06:31:30.032Z,36.47
2022-09-28T06:33:57.202Z,36.58
2022-09-28T06:36:23.816Z,36.67
2022-09-28T06:38:50.557Z,37.08
2022-09-28T06:41:17.297Z,34.45
2022-09-28T06:43:46.411Z,32.08
2022-09-28T06:46:14.155Z,34.28
2022-09-28T06:48:50.122Z,33.60
2022-09-28T06:51:48.879Z,33.92
2022-09-28T06:54:25.552Z,35.90
2022-09-28T06:57:21.119Z,35.47
2022-09-28T06:59:47.790Z,38.15
2022-09-28T07:02:14.920Z,39.55
2022-09-28T07:05:16.877Z,41.55
2022-09-28T07:07:58.786Z,36.78
2022-09-28T07:10:49.444Z,34.38
2022-09-28T07:16:15.332Z,34.30
2022-09-28T07:18:42.285Z,37.55
2022-09-28T07:21:14.115Z,33.85
2022-09-28T07:23:53.192Z,34.40
2022-09-28T07:26:24.749Z,33.45
2022-09-28T07:29:10.921Z,31.77
2022-09-28T07:31:43.667Z,30.80
2022-09-28T07:34:43.560Z,33.33
2022-09-28T07:37:18.945Z,29.73
2022-09-28T07:40:05.165Z,30.67
2022-09-28T07:42:34.688Z,31.42
2022-09-28T07:45:01.403Z,28.85
2022-09-28T07:47:33.856Z,32.70
2022-09-28T07:50:27.845Z,32.30
2022-09-28T07:53:12.779Z,34.20
2022-09-28T07:56:05.634Z,29.67
2022-09-28T07:58:48.608Z,34.00
2022-09-28T08:01:44.429Z,33.25
2022-09-28T08:04:13.774Z,32.30
2022-09-28T08:06:42.466Z,31.23
2022-09-28T08:09:11.160Z,33.65
2022-09-28T08:12:07.755Z,29.65
2022-09-28T08:14:34.437Z,30.30
2022-09-28T08:17:19.596Z,28.95
2022-09-28T08:20:08.684Z,29.88
2022-09-28T08:22:35.341Z,30.85
2022-09-28T08:25:02.132Z,30.13
2022-09-28T08:27:29.387Z,30.88
2022-09-28T08:29:55.967Z,25.83
2022-09-28T08:32:51.802Z,30.73
2022-09-28T08:35:37.060Z,33.97
2022-09-28T08:38:14.588Z,29.45
2022-09-28T08:41:05.780Z,28.90
2022-09-28T08:44:23.686Z,27.43
2022-09-28T08:47:41.113Z,29.73
2022-09-28T08:50:26.885Z,27.58
2022-09-28T08:53:51.188Z,27.02
2022-09-28T08:56:35.878Z,31.63
2022-09-28T08:59:05.423Z,29.30
2022-09-28T09:04:07.039Z,32.53
2022-09-28T09:07:19.216Z,30.67
2022-09-28T09:10:03.319Z,32.78
2022-09-28T09:12:48.351Z,31.60
2022-09-28T09:15:26.708Z,30.23
2022-09-28T09:17:56.393Z,32.85
2022-09-28T09:20:35.239Z,29.23
2022-09-28T09:23:24.288Z,32.92
2022-09-28T09:25:54.883Z,34.75
2022-09-28T09:28:38.351Z,32.17
2022-09-28T09:31:11.634Z,33.15
2022-09-28T09:34:02.229Z,26.08
2022-09-28T09:37:06.447Z,25.58
2022-09-28T09:40:27.369Z,23.35
2022-09-28T09:43:29.340Z,24.27
2022-09-28T09:46:11.826Z,18.98
2022-09-28T09:49:01.192Z,21.08
2022-09-28T09:51:40.229Z,20.83
2022-09-28T09:56:58.401Z,21.67
2022-09-28T09:59:48.658Z,23.23
2022-09-28T10:02:35.635Z,21.70
2022-09-28T10:05:27.673Z,22.63
2022-09-28T10:08:03.020Z,19.05
2022-09-28T10:10:35.223Z,26.95
2022-09-28T10:13:10.913Z,19.75
2022-09-28T10:15:41.323Z,19.98
2022-09-28T10:18:15.972Z,22.33
2022-09-28T10:21:01.336Z,19.92
2022-09-28T10:23:42.520Z,20.00
2022-09-28T10:26:25.062Z,20.58
2022-09-28T10:29:19.717Z,22.35
2022-09-28T10:31:51.728Z,22.45
2022-09-28T10:34:31.059Z,18.17
2022-09-28T10:37:09.480Z,23.45
2022-09-28T10:40:02.250Z,18.52
2022-09-28T10:42:34.900Z,27.15
2022-09-28T10:45:15.585Z,19.38
2022-09-28T10:47:44.800Z,20.30
2022-09-28T10:50:35.047Z,22.08
2022-09-28T10:53:22.774Z,20.60
2022-09-28T10:56:26.824Z,23.55
2022-09-28T10:59:00.573Z,19.02
2022-09-28T11:01:45.790Z,20.88
2022-09-28T11:04:21.809Z,18.45
2022-09-28T11:06:48.565Z,20.67
2022-09-28T11:09:45.188Z,24.50
2022-09-28T11:12:39.598Z,18.35
2022-09-28T11:15:07.711Z,20.52
2022-09-28T11:17:38.839Z,20.10
2022-09-28T11:20:27.865Z,17.77
2022-09-28T11:23:18.245Z,21.30
2022-09-28T11:25:57.399Z,19.95
2022-09-28T11:28:32.742Z,18.97
2022-09-28T11:31:02.942Z,17.75
2022-09-28T11:33:38.805Z,18.55
2022-09-28T11:36:50.227Z,14.25
2022-09-28T11:39:29.088Z,14.43
2022-09-28T11:42:12.961Z,14.77
2022-09-28T11:44:46.973Z,13.70
2022-09-28T11:47:39.726Z,13.95
2022-09-28T11:50:25.711Z,15.95
2022-09-28T11:53:11.186Z,16.98
2022-09-28T11:55:51.893Z,12.23
2022-09-28T11:58:26.276Z,15.18
2022-09-28T12:01:08.701Z,12.18
2022-09-28T12:04:04.007Z,14.00
2022-09-28T12:07:17.084Z,13.98
2022-09-28T12:10:15.799Z,14.85
2022-09-28T12:13:00.183Z,13.43
2022-09-28T12:16:11.642Z,13.77
2022-09-28T12:19:12.615Z,11.10
2022-09-28T12:22:06.559Z,15.00
2022-09-28T12:24:38.549Z,12.82
2022-09-28T12:27:52.501Z,11.40
2022-09-28T12:30:30.830Z,15.10
2022-09-28T12:33:15.219Z,12.93
2022-09-28T12:39:57.449Z,12.90
2022-09-28T12:43:22.098Z,16.42
2022-09-28T12:46:30.145Z,18.95
2022-09-28T12:50:07.255Z,18.08
2022-09-28T12:52:35.080Z,16.73
2022-09-28T12:55:23.117Z,18.42
2022-09-28T12:58:03.709Z,18.42
2022-09-28T13:00:56.543Z,14.00
2022-09-28T13:03:54.683Z,17.27
2022-09-28T13:06:46.943Z,15.85
2022-09-28T13:13:16.191Z,19.02
2022-09-28T13:16:29.170Z,52.22
2022-09-28T13:22:50.765Z,36.30
2022-09-28T13:31:40.125Z,17.02
2022-09-28T13:34:32.432Z,17.88
2022-09-28T13:40:09.202Z,15.20
2022-09-28T13:43:06.886Z,15.23
2022-09-28T13:46:05.981Z,14.30
2022-09-28T13:49:25.645Z,14.48
2022-09-28T13:52:37.151Z,20.33
2022-09-28T13:56:08.924Z,17.15
2022-09-28T14:02:20.161Z,16.55
2022-09-28T14:12:52.968Z,14.80
2022-09-28T14:16:30.001Z,16.33
2022-09-28T14:20:36.682Z,14.52
2022-09-28T14:23:13.911Z,18.02
2022-09-28T14:30:14.811Z,13.35
2022-09-28T14:33:20.176Z,20.38
2022-09-28T14:36:05.245Z,20.38
2022-09-28T14:39:43.798Z,13.40
2022-09-28T14:45:43.135Z,16.23
2022-09-28T14:49:14.271Z,13.32
2022-09-28T14:51:57.081Z,13.68
2022-09-28T14:55:27.511Z,14.70
2022-09-28T14:58:23.366Z,15.75
2022-09-28T15:01:27.940Z,14.95
2022-09-28T15:04:25.625Z,12.65
2022-09-28T15:07:47.809Z,15.15
2022-09-28T15:10:45.124Z,12.65
2022-09-28T15:13:48.935Z,13.55
2022-09-28T15:16:44.761Z,12.48
2022-09-28T15:20:05.698Z,15.80
2022-09-28T15:22:52.281Z,13.45
2022-09-28T15:25:50.909Z,13.03
2022-09-28T15:28:35.654Z,9.85
2022-09-28T15:31:43.424Z,13.65
2022-09-28T15:35:02.266Z,12.10
2022-09-28T15:37:50.889Z,12.35
2022-09-28T15:43:43.361Z,11.93
2022-09-28T15:46:29.370Z,13.38
2022-09-28T15:49:16.149Z,8.73
2022-09-28T15:52:26.621Z,9.70
2022-09-28T15:58:35.051Z,14.23
2022-09-28T16:01:27.738Z,12.50
2022-09-28T16:07:25.669Z,10.20
2022-09-28T16:10:30.461Z,10.52
2022-09-28T16:13:31.808Z,13.25
2022-09-28T16:16:24.769Z,13.45
2022-09-28T16:19:11.821Z,12.63
2022-09-28T16:25:04.094Z,13.18
2022-09-28T16:28:25.029Z,14.27
2022-09-28T16:31:43.998Z,11.40
2022-09-28T16:34:37.918Z,14.23
2022-09-28T16:43:12.735Z,13.40
2022-09-28T16:46:46.410Z,10.60
2022-09-28T16:49:19.856Z,12.38
2022-09-28T16:58:34.784Z,15.77
2022-09-28T17:01:22.674Z,14.20
2022-09-28T17:04:01.423Z,15.55
2022-09-28T17:06:28.206Z,17.33
2022-09-28T17:08:56.613Z,15.85
2022-09-28T17:11:24.957Z,16.50
2022-09-28T17:13:52.324Z,21.23
2022-09-28T17:19:18.707Z,18.05
2022-09-28T17:21:45.880Z,25.50
2022-09-28T17:24:12.589Z,21.88
2022-09-28T17:26:41.700Z,19.25
2022-09-28T17:29:14.571Z,17.70
2022-09-28T17:31:42.701Z,19.95
2022-09-28T17:34:10.761Z,18.77
2022-09-28T17:36:37.926Z,21.48
2022-09-28T17:39:06.505Z,23.00
2022-09-28T17:41:34.227Z,21.02
2022-09-28T17:44:03.093Z,17.55
2022-09-28T17:46:40.846Z,22.33
2022-09-28T17:49:11.694Z,23.15
2022-09-28T17:51:41.198Z,28.95
2022-09-28T17:54:08.632Z,24.88
2022-09-28T17:56:36.479Z,23.75
2022-09-28T17:59:10.380Z,22.60
2022-09-28T18:01:39.539Z,22.85
2022-09-28T18:04:08.775Z,22.25
2022-09-28T18:06:37.299Z,17.05
2022-09-28T18:09:05.348Z,19.58
2022-09-28T18:11:33.353Z,19.85
2022-09-28T18:13:59.962Z,19.85
2022-09-28T18:16:28.615Z,21.02
2022-09-28T18:18:55.347Z,22.73
2022-09-28T18:21:21.935Z,18.92
2022-09-28T18:23:48.619Z,17.83
2022-09-28T18:26:16.792Z,19.30
2022-09-28T18:28:43.367Z,19.98
2022-09-28T18:31:12.038Z,16.05
2022-09-28T18:33:39.421Z,19.17
2022-09-28T18:36:07.344Z,20.48
2022-09-28T18:38:37.816Z,19.35
2022-09-28T18:41:15.895Z,22.58
2022-09-28T18:43:50.213Z,19.00
2022-09-28T18:46:18.379Z,22.08
2022-09-28T18:48:47.651Z,21.42
2022-09-28T18:51:14.977Z,20.70
2022-09-28T18:53:41.794Z,21.40
2022-09-28T18:56:10.750Z,21.33
2022-09-28T18:58:39.616Z,21.02
2022-09-28T19:04:10.448Z,19.10
2022-09-28T19:06:40.668Z,19.75
2022-09-28T19:09:08.952Z,26.38
2022-09-28T19:11:35.751Z,20.80
2022-09-28T19:14:03.685Z,20.75
2022-09-28T19:16:33.680Z,23.63
2022-09-28T19:19:02.115Z,22.17
2022-09-28T19:21:29.501Z,26.52
2022-09-28T19:23:56.227Z,27.13
2022-09-28T19:26:25.486Z,29.08
2022-09-28T19:28:52.291Z,25.17
2022-09-28T19:31:19.656Z,24.95
2022-09-28T19:33:46.843Z,27.77
2022-09-28T19:36:19.811Z,24.23
2022-09-28T19:38:46.525Z,26.98
2022-09-28T19:41:43.096Z,27.98
2022-09-28T19:44:24.510Z,28.30
2022-09-28T19:46:58.693Z,27.27
2022-09-28T19:49:27.504Z,24.13
2022-09-28T19:52:14.212Z,26.33
2022-09-28T19:54:43.928Z,27.23
2022-09-28T19:57:12.272Z,24.77
2022-09-28T19:59:39.391Z,23.52
2022-09-28T20:02:08.380Z,27.40
2022-09-28T20:04:35.337Z,24.73
2022-09-28T20:07:02.509Z,26.52
2022-09-28T20:09:29.315Z,26.92
2022-09-28T20:11:56.002Z,28.13
2022-09-28T20:14:24.661Z,21.98
2022-09-28T20:16:55.051Z,23.75
2022-09-28T20:19:23.279Z,24.17
2022-09-28T20:21:50.544Z,26.67
2022-09-28T20:24:17.707Z,25.17
2022-09-28T20:26:45.862Z,26.63
2022-09-28T20:29:13.182Z,27.55
2022-09-28T20:31:39.986Z,29.40
2022-09-28T20:34:07.058Z,26.70
2022-09-28T20:36:34.297Z,39.20
2022-09-28T20:39:02.087Z,32.15
2022-09-28T20:41:35.592Z,26.50
2022-09-28T20:44:06.002Z,29.48
2022-09-28T20:46:34.743Z,32.00
2022-09-28T20:49:01.874Z,26.38
2022-09-28T20:51:28.709Z,26.67
2022-09-28T20:53:56.778Z,24.80
2022-09-28T20:56:24.521Z,26.20
2022-09-28T20:58:52.133Z,29.40
2022-09-28T21:01:27.324Z,23.17
2022-09-28T21:04:01.764Z,21.95
2022-09-28T21:06:30.588Z,26.27
2022-09-28T21:08:57.535Z,25.77
2022-09-28T21:11:26.108Z,27.42
2022-09-28T21:13:58.557Z,27.70
2022-09-28T21:16:27.190Z,31.08
2022-09-28T21:18:53.807Z,28.95
2022-09-28T21:21:21.682Z,31.27
2022-09-28T21:23:51.584Z,29.75
2022-09-28T21:26:26.797Z,36.90
2022-09-28T21:28:56.346Z,27.77
2022-09-28T21:31:28.852Z,32.75
2022-09-28T21:33:57.118Z,26.65
2022-09-28T21:36:23.772Z,26.73
2022-09-28T21:38:50.428Z,30.42
2022-09-28T21:41:17.191Z,29.25
2022-09-28T21:43:45.331Z,32.95
2022-09-28T21:46:12.044Z,29.50
2022-09-28T21:48:38.662Z,27.58
2022-09-28T21:51:08.073Z,28.55
2022-09-28T21:53:36.664Z,31.75
2022-09-28T21:56:05.302Z,30.90
2022-09-28T21:58:33.994Z,31.38
2022-09-28T22:01:03.947Z,28.20
2022-09-28T22:03:31.851Z,27.40
2022-09-28T22:05:58.558Z,28.55
2022-09-28T22:08:26.034Z,30.30
2022-09-28T22:11:00.902Z,28.42
2022-09-28T22:13:29.217Z,29.83
2022-09-28T22:15:57.881Z,31.95
2022-09-28T22:18:26.064Z,30.63
2022-09-28T22:21:08.974Z,27.73
2022-09-28T22:23:37.516Z,27.05
2022-09-28T22:26:11.151Z,29.00
2022-09-28T22:28:39.928Z,27.85
2022-09-28T22:31:06.718Z,33.37
2022-09-28T22:33:34.141Z,25.38
2022-09-28T22:36:00.923Z,25.15
2022-09-28T22:38:31.072Z,27.27
2022-09-28T22:40:58.328Z,25.20
2022-09-28T22:43:26.655Z,27.58
2022-09-28T22:46:06.765Z,26.63
2022-09-28T22:48:34.797Z,30.52
2022-09-28T22:51:02.573Z,27.48
2022-09-28T22:53:29.615Z,29.55
2022-09-28T22:55:58.084Z,26.40
2022-09-28T22:58:25.253Z,24.83
2022-09-28T23:00:51.987Z,30.02
2022-09-28T23:03:18.600Z,27.17
2022-09-28T23:05:53.981Z,26.13
2022-09-28T23:08:20.747Z,26.90
2022-09-28T23:10:47.479Z,26.75
2022-09-28T23:13:14.500Z,29.13
2022-09-28T23:15:41.118Z,27.73
2022-09-28T23:18:08.592Z,24.75
2022-09-28T23:20:36.569Z,26.45
2022-09-28T23:23:03.177Z,27.55
2022-09-28T23:25:29.811Z,26.67
2022-09-28T23:27:56.385Z,27.15
2022-09-28T23:30:23.794Z,29.67
2022-09-28T23:32:53.338Z,27.25
2022-09-28T23:35:20.161Z,25.30
2022-09-28T23:37:50.679Z,22.20
2022-09-28T23:40:18.245Z,26.17
2022-09-28T23:42:44.929Z,25.83
2022-09-28T23:45:12.087Z,25.55
2022-09-28T23:47:38.825Z,24.90
2022-09-28T23:50:06.619Z,24.83
2022-09-28T23:52:33.714Z,30.23
2022-09-28T23:55:00.280Z,24.15
2022-09-28T23:57:26.921Z,30.92
2022-09-28T23:59:53.544Z,27.45
